Time;durP1;ratioP1;P1;durP2;ratioP2;P2;SDS_P1;SDS_P2;PMS_P1;PMS_P2;Temp;Humidity;BMP_temperature;BMP_pressure;BME280_temperature;BME280_humidity;BME280_pressure;Samples;Min_cycle;Max_cycle;Signal;HPM_P1;HPM_P2
2024/02/05 00:01:41;;;;;;;5.00;3.22;;;;;;;;;;5054422;28;20028;-60
2024/02/05 00:04:07;;;;;;;4.25;2.95;;;;;;;;;;5061531;28;20025;-60
2024/02/05 00:06:33;;;;;;;6.65;3.50;;;;;;;;;;5055283;28;20679;-60
2024/02/05 00:08:59;;;;;;;6.65;3.35;;;;;;;;;;5070098;28;20037;-60
2024/02/05 00:11:25;;;;;;;4.53;3.33;;;;;;;;;;5064926;28;20029;-60
2024/02/05 00:13:51;;;;;;;6.97;4.20;;;;;;;;;;5029104;28;981902;-59
2024/02/05 00:16:17;;;;;;;5.13;3.45;;;;;;;;;;5069488;28;20504;-60
2024/02/05 00:18:43;;;;;;;8.23;3.63;;;;;;;;;;5055947;28;20109;-60
2024/02/05 00:21:09;;;;;;;4.45;3.20;;;;;;;;;;5064826;28;20487;-60
2024/02/05 00:23:35;;;;;;;5.30;3.40;;;;;;;;;;5069205;28;20405;-60
2024/02/05 00:26:03;;;;;;;3.85;2.78;;;;;;;;;;5070038;28;20375;-61
2024/02/05 00:28:29;;;;;;;4.05;2.67;;;;;;;;;;5067587;28;20024;-60
2024/02/05 00:30:55;;;;;;;4.35;2.60;;;;;;;;;;5070774;28;20029;-60
2024/02/05 00:33:21;;;;;;;3.65;2.58;;;;;;;;;;5067611;28;20044;-59
2024/02/05 00:35:47;;;;;;;2.97;2.17;;;;;;;;;;5064784;28;20033;-60
2024/02/05 00:38:13;;;;;;;3.80;2.45;;;;;;;;;;5056211;28;20029;-61
2024/02/05 00:40:41;;;;;;;2.03;1.70;;;;;;;;;;5062648;28;20573;-60
2024/02/05 00:43:07;;;;;;;2.95;1.70;;;;;;;;;;5059524;28;20470;-59
2024/02/05 00:45:33;;;;;;;2.80;1.80;;;;;;;;;;5066446;28;20367;-60
2024/02/05 00:47:59;;;;;;;2.70;1.52;;;;;;;;;;5063430;28;20036;-64
2024/02/05 00:50:25;;;;;;;3.42;1.73;;;;;;;;;;5059505;28;20474;-63
2024/02/05 00:52:51;;;;;;;1.63;1.42;;;;;;;;;;5070886;28;20037;-64
2024/02/05 00:55:17;;;;;;;2.65;1.33;;;;;;;;;;5067929;28;20036;-64
2024/02/05 00:57:43;;;;;;;1.17;0.93;;;;;;;;;;5051868;28;20032;-63
2024/02/05 01:00:09;;;;;;;2.28;1.20;;;;;;;;;;5070962;28;20032;-61
2024/02/05 01:02:39;;;;;;;2.47;1.10;;;;;;;;;;5060638;28;20020;-63
2024/02/05 01:05:06;;;;;;;1.52;0.90;;;;;;;;;;5072731;28;20025;-64
2024/02/05 01:07:32;;;;;;;2.28;1.20;;;;;;;;;;5073040;28;20024;-63
2024/02/05 01:09:58;;;;;;;1.65;1.20;;;;;;;;;;5064564;28;20029;-63
2024/02/05 01:12:24;;;;;;;3.17;0.90;;;;;;;;;;5068895;28;20561;-63
2024/02/05 01:14:50;;;;;;;1.85;0.98;;;;;;;;;;5063824;28;20049;-63
2024/02/05 01:17:16;;;;;;;3.60;1.30;;;;;;;;;;5072653;28;20035;-60
2024/02/05 01:19:48;;;;;;;1.95;1.25;;;;;;;;;;5068899;28;20493;-63
2024/02/05 01:22:14;;;;;;;2.05;0.90;;;;;;;;;;5065768;28;20109;-64
2024/02/05 01:24:40;;;;;;;1.52;1.08;;;;;;;;;;5066567;28;20070;-63
2024/02/05 01:27:06;;;;;;;2.28;1.33;;;;;;;;;;5069001;28;20112;-63
2024/02/05 01:29:32;;;;;;;2.22;1.52;;;;;;;;;;5058186;28;20395;-63
2024/02/05 01:31:57;;;;;;;3.05;1.30;;;;;;;;;;5055256;28;20102;-63
2024/02/05 01:34:23;;;;;;;2.00;1.20;;;;;;;;;;5058375;28;20036;-63
2024/02/05 01:36:49;;;;;;;3.55;1.00;;;;;;;;;;5071420;28;20081;-64
2024/02/05 01:39:15;;;;;;;2.20;1.15;;;;;;;;;;5060624;28;20036;-64
2024/02/05 01:41:42;;;;;;;1.92;1.30;;;;;;;;;;5073217;28;20021;-64
2024/02/05 01:44:07;;;;;;;1.95;1.20;;;;;;;;;;5072047;28;20108;-63
2024/02/05 01:46:36;;;;;;;3.20;1.38;;;;;;;;;;5069588;28;20028;-63
2024/02/05 01:49:05;;;;;;;2.95;1.30;;;;;;;;;;5072162;28;20032;-63
2024/02/05 01:51:33;;;;;;;2.72;1.10;;;;;;;;;;5072159;28;20090;-64
2024/02/05 01:53:59;;;;;;;1.70;1.00;;;;;;;;;;5064785;28;20091;-63
2024/02/05 01:56:30;;;;;;;1.70;0.90;;;;;;;;;;5060314;28;20085;-60
2024/02/05 01:58:58;;;;;;;1.70;1.10;;;;;;;;;;5065236;28;20033;-61
2024/02/05 02:01:24;;;;;;;2.13;1.02;;;;;;;;;;5064844;28;20463;-58
2024/02/05 02:03:50;;;;;;;1.83;1.25;;;;;;;;;;5061436;28;20031;-58
2024/02/05 02:06:17;;;;;;;3.60;1.38;;;;;;;;;;5035838;28;20025;-57
2024/02/05 02:08:43;;;;;;;2.13;1.30;;;;;;;;;;5062449;28;20108;-58
2024/02/05 02:11:09;;;;;;;3.30;1.30;;;;;;;;;;5073123;28;20029;-58
2024/02/05 02:13:35;;;;;;;2.15;1.38;;;;;;;;;;5072318;28;20024;-57
2024/02/05 02:16:03;;;;;;;2.15;1.38;;;;;;;;;;5064187;28;20059;-57
2024/02/05 02:18:30;;;;;;;1.90;1.30;;;;;;;;;;5065480;28;20039;-58
2024/02/05 02:20:57;;;;;;;1.33;1.00;;;;;;;;;;5066842;28;20033;-58
2024/02/05 02:23:29;;;;;;;2.40;1.42;;;;;;;;;;5067714;28;20390;-59
2024/02/05 02:25:55;;;;;;;1.88;1.10;;;;;;;;;;5067637;28;20031;-59
2024/02/05 02:28:21;;;;;;;1.27;0.98;;;;;;;;;;5072365;28;20032;-58
2024/02/05 02:30:48;;;;;;;1.30;1.00;;;;;;;;;;5065641;28;20040;-58
2024/02/05 02:33:18;;;;;;;3.53;1.38;;;;;;;;;;5062987;28;20730;-59
2024/02/05 02:35:47;;;;;;;5.50;1.15;;;;;;;;;;5059094;28;20536;-58
2024/02/05 02:38:19;;;;;;;2.30;0.93;;;;;;;;;;5071640;28;20025;-58
2024/02/05 02:40:45;;;;;;;1.70;1.20;;;;;;;;;;5070550;28;20031;-58
2024/02/05 02:43:12;;;;;;;1.95;1.02;;;;;;;;;;5071859;28;20028;-58
2024/02/05 02:45:38;;;;;;;1.52;1.00;;;;;;;;;;5068494;28;20028;-58
2024/02/05 02:48:04;;;;;;;2.13;0.95;;;;;;;;;;5067920;28;20039;-58
2024/02/05 02:50:30;;;;;;;1.67;1.15;;;;;;;;;;5067744;28;20029;-57
2024/02/05 02:52:56;;;;;;;0.80;0.70;;;;;;;;;;5063429;28;20066;-58
2024/02/05 02:55:22;;;;;;;1.60;1.10;;;;;;;;;;5069574;28;20032;-58
2024/02/05 02:57:48;;;;;;;1.65;1.20;;;;;;;;;;5059660;28;20522;-57
2024/02/05 03:00:15;;;;;;;1.30;0.85;;;;;;;;;;5067042;28;20032;-58
2024/02/05 03:02:41;;;;;;;2.03;1.10;;;;;;;;;;5069378;28;20103;-58
2024/02/05 03:05:07;;;;;;;1.10;0.90;;;;;;;;;;5057014;28;20526;-58
2024/02/05 03:07:34;;;;;;;4.00;1.08;;;;;;;;;;5059787;28;20461;-58
2024/02/05 03:10:01;;;;;;;2.83;1.35;;;;;;;;;;5067156;28;20025;-58
2024/02/05 03:12:27;;;;;;;1.77;1.17;;;;;;;;;;5070837;28;20398;-57
2024/02/05 03:14:53;;;;;;;2.17;0.98;;;;;;;;;;5065164;28;20045;-58
2024/02/05 03:17:19;;;;;;;2.42;1.20;;;;;;;;;;5063466;28;20033;-57
2024/02/05 03:19:45;;;;;;;4.45;1.33;;;;;;;;;;5069830;28;20028;-58
2024/02/05 03:22:11;;;;;;;2.10;1.33;;;;;;;;;;5065822;28;20040;-58
2024/02/05 03:24:37;;;;;;;3.63;1.00;;;;;;;;;;5058288;28;20028;-57
2024/02/05 03:27:03;;;;;;;4.55;1.40;;;;;;;;;;5066717;28;20025;-58
2024/02/05 03:29:29;;;;;;;1.58;0.90;;;;;;;;;;5059330;28;20053;-59
2024/02/05 03:31:55;;;;;;;1.52;1.20;;;;;;;;;;5046323;28;20029;-57
2024/02/05 03:34:21;;;;;;;3.03;1.20;;;;;;;;;;5069143;28;20036;-58
2024/02/05 03:36:48;;;;;;;1.27;1.00;;;;;;;;;;5064691;28;20047;-58
2024/02/05 03:39:14;;;;;;;1.98;1.27;;;;;;;;;;5068574;28;20032;-58
2024/02/05 03:41:40;;;;;;;3.00;1.05;;;;;;;;;;5070150;28;20540;-58
2024/02/05 03:44:06;;;;;;;1.17;0.80;;;;;;;;;;5069164;28;20020;-59
2024/02/05 03:46:32;;;;;;;1.15;0.95;;;;;;;;;;5071692;28;20036;-58
2024/02/05 03:48:59;;;;;;;1.15;0.90;;;;;;;;;;5071323;28;20028;-59
2024/02/05 03:51:25;;;;;;;1.08;0.90;;;;;;;;;;5069131;28;20025;-58
2024/02/05 03:53:52;;;;;;;0.98;0.80;;;;;;;;;;5069573;28;20032;-59
2024/02/05 03:56:18;;;;;;;1.85;1.08;;;;;;;;;;5065661;28;20026;-57
2024/02/05 03:58:44;;;;;;;1.52;0.90;;;;;;;;;;5044746;28;20517;-58
2024/02/05 04:01:10;;;;;;;3.22;1.38;;;;;;;;;;5058736;28;20013;-57
2024/02/05 04:03:36;;;;;;;6.43;0.95;;;;;;;;;;5058157;28;20039;-58
2024/02/05 04:06:03;;;;;;;1.70;1.05;;;;;;;;;;5067489;28;20029;-58
2024/02/05 04:08:29;;;;;;;1.63;0.85;;;;;;;;;;5071175;28;20409;-59
2024/02/05 04:10:56;;;;;;;1.75;1.10;;;;;;;;;;5069940;28;20044;-59
2024/02/05 04:13:22;;;;;;;2.38;1.17;;;;;;;;;;5063379;28;20061;-58
2024/02/05 04:15:48;;;;;;;2.10;1.23;;;;;;;;;;5070026;28;20091;-61
2024/02/05 04:18:14;;;;;;;1.88;1.00;;;;;;;;;;5070658;28;20028;-60
2024/02/05 04:20:40;;;;;;;4.63;1.10;;;;;;;;;;5061242;28;20036;-60
2024/02/05 04:23:06;;;;;;;4.05;1.33;;;;;;;;;;5071057;28;20063;-61
2024/02/05 04:25:32;;;;;;;1.40;0.80;;;;;;;;;;5059389;28;20021;-61
2024/02/05 04:27:58;;;;;;;0.90;0.77;;;;;;;;;;5051649;28;20029;-61
2024/02/05 04:30:29;;;;;;;1.00;0.80;;;;;;;;;;5057198;28;20036;-60
2024/02/05 04:32:56;;;;;;;4.07;0.70;;;;;;;;;;5069959;28;20029;-61
2024/02/05 04:35:22;;;;;;;1.65;0.60;;;;;;;;;;5052867;28;20029;-61
2024/02/05 04:37:48;;;;;;;1.35;0.93;;;;;;;;;;5068111;28;20064;-61
2024/02/05 04:40:14;;;;;;;0.90;0.70;;;;;;;;;;5072610;28;20060;-61
2024/02/05 04:42:40;;;;;;;1.45;0.82;;;;;;;;;;5073407;28;20035;-61
2024/02/05 04:45:06;;;;;;;1.70;0.98;;;;;;;;;;5064308;28;20020;-60
2024/02/05 04:47:32;;;;;;;1.13;0.80;;;;;;;;;;5064082;28;20112;-60
2024/02/05 04:49:58;;;;;;;1.50;0.80;;;;;;;;;;5070695;28;20107;-60
2024/02/05 04:52:25;;;;;;;1.08;0.70;;;;;;;;;;5070049;28;20029;-60
2024/02/05 04:54:51;;;;;;;0.98;0.73;;;;;;;;;;5065460;28;20032;-61
2024/02/05 04:57:18;;;;;;;1.13;0.70;;;;;;;;;;5073995;28;20486;-60
2024/02/05 04:59:44;;;;;;;3.42;0.82;;;;;;;;;;5066388;28;20028;-60
2024/02/05 05:02:10;;;;;;;2.15;0.80;;;;;;;;;;5067740;28;20050;-59
2024/02/05 05:04:38;;;;;;;2.05;0.70;;;;;;;;;;5068202;28;20027;-60
2024/02/05 05:07:04;;;;;;;3.78;0.70;;;;;;;;;;5072489;28;20028;-59
2024/02/05 05:09:30;;;;;;;0.85;0.40;;;;;;;;;;5052312;28;20020;-60
2024/02/05 05:11:56;;;;;;;1.02;0.50;;;;;;;;;;5066438;28;20032;-59
2024/02/05 05:14:22;;;;;;;0.88;0.50;;;;;;;;;;5067372;28;21476;-60
2024/02/05 05:16:48;;;;;;;0.50;0.43;;;;;;;;;;5073258;28;20628;-60
2024/02/05 05:19:15;;;;;;;1.23;0.20;;;;;;;;;;5060478;28;20028;-60
2024/02/05 05:21:41;;;;;;;0.50;0.43;;;;;;;;;;5070481;28;20062;-60
2024/02/05 05:24:07;;;;;;;0.68;0.68;;;;;;;;;;5066388;28;20024;-61
2024/02/05 05:26:33;;;;;;;2.50;1.13;;;;;;;;;;5065429;28;20025;-60
2024/02/05 05:28:59;;;;;;;1.50;1.13;;;;;;;;;;5063818;28;20032;-60
2024/02/05 05:31:25;;;;;;;2.22;0.68;;;;;;;;;;5068248;28;20487;-60
2024/02/05 05:33:51;;;;;;;2.03;1.00;;;;;;;;;;5067847;28;20395;-60
2024/02/05 05:36:17;;;;;;;1.10;0.90;;;;;;;;;;5068639;28;20041;-61
2024/02/05 05:38:43;;;;;;;0.88;0.60;;;;;;;;;;5071400;28;20536;-61
2024/02/05 05:41:09;;;;;;;1.70;0.70;;;;;;;;;;5070442;28;20371;-60
2024/02/05 05:43:35;;;;;;;1.75;0.80;;;;;;;;;;5062678;28;20394;-60
2024/02/05 05:46:01;;;;;;;1.08;0.70;;;;;;;;;;5068689;28;20029;-60
2024/02/05 05:48:27;;;;;;;1.08;0.80;;;;;;;;;;5070812;28;20078;-60
2024/02/05 05:50:53;;;;;;;0.90;0.80;;;;;;;;;;5065730;28;20363;-60
2024/02/05 05:53:19;;;;;;;1.17;0.80;;;;;;;;;;5069407;28;20040;-61
2024/02/05 05:55:48;;;;;;;3.72;0.88;;;;;;;;;;5064984;28;20041;-60
2024/02/05 05:58:14;;;;;;;0.90;0.80;;;;;;;;;;5061714;28;20554;-60
2024/02/05 06:00:40;;;;;;;1.17;0.88;;;;;;;;;;5071455;28;20031;-60
2024/02/05 06:03:06;;;;;;;1.00;0.70;;;;;;;;;;5068850;28;20033;-60
2024/02/05 06:05:32;;;;;;;1.38;1.00;;;;;;;;;;5060246;28;20021;-60
2024/02/05 06:07:58;;;;;;;3.72;1.23;;;;;;;;;;5070891;28;20036;-60
2024/02/05 06:10:24;;;;;;;5.10;0.77;;;;;;;;;;5070064;28;20050;-60
2024/02/05 06:12:50;;;;;;;1.88;1.15;;;;;;;;;;5068271;28;20024;-60
2024/02/05 06:15:16;;;;;;;2.33;1.00;;;;;;;;;;5072079;28;20044;-60
2024/02/05 06:17:42;;;;;;;4.25;1.05;;;;;;;;;;5062509;28;20399;-60
2024/02/05 06:20:08;;;;;;;3.95;1.27;;;;;;;;;;5064235;28;20029;-60
2024/02/05 06:22:35;;;;;;;2.78;1.00;;;;;;;;;;5064623;28;20479;-60
2024/02/05 06:25:01;;;;;;;1.30;0.80;;;;;;;;;;5066496;28;20524;-60
2024/02/05 06:27:27;;;;;;;4.13;0.95;;;;;;;;;;5067121;28;20025;-60
2024/02/05 06:29:53;;;;;;;1.73;0.82;;;;;;;;;;5071575;28;20402;-60
2024/02/05 06:32:19;;;;;;;1.23;0.85;;;;;;;;;;5065454;28;20036;-59
2024/02/05 06:34:45;;;;;;;1.65;0.98;;;;;;;;;;5066442;28;20036;-60
2024/02/05 06:37:11;;;;;;;1.55;0.80;;;;;;;;;;5059562;28;20033;-60
2024/02/05 06:39:39;;;;;;;2.15;0.70;;;;;;;;;;5070574;28;20536;-60
2024/02/05 06:42:05;;;;;;;2.15;0.85;;;;;;;;;;5065470;28;20021;-60
2024/02/05 06:44:31;;;;;;;1.00;0.68;;;;;;;;;;5069976;28;20024;-60
2024/02/05 06:46:57;;;;;;;1.15;0.60;;;;;;;;;;5066764;28;20031;-60
2024/02/05 06:49:23;;;;;;;1.45;0.80;;;;;;;;;;5059533;28;20020;-60
2024/02/05 06:51:49;;;;;;;1.10;0.50;;;;;;;;;;5072079;28;20028;-60
2024/02/05 06:54:15;;;;;;;3.05;0.60;;;;;;;;;;5062499;28;20028;-59
2024/02/05 06:56:41;;;;;;;0.60;0.40;;;;;;;;;;5061124;28;20013;-60
2024/02/05 06:59:07;;;;;;;0.55;0.50;;;;;;;;;;5069881;28;20484;-59
2024/02/05 07:01:33;;;;;;;0.70;0.52;;;;;;;;;;5059958;28;20032;-60
2024/02/05 07:03:59;;;;;;;2.05;0.57;;;;;;;;;;5045631;28;20025;-60
2024/02/05 07:06:25;;;;;;;1.23;0.68;;;;;;;;;;5059021;28;20390;-60
2024/02/05 07:08:51;;;;;;;4.57;0.50;;;;;;;;;;5068633;28;20029;-60
2024/02/05 07:11:17;;;;;;;2.00;0.65;;;;;;;;;;5057379;28;20021;-60
2024/02/05 07:13:43;;;;;;;1.25;0.75;;;;;;;;;;5069611;28;20037;-60
2024/02/05 07:16:14;;;;;;;1.27;0.70;;;;;;;;;;5070600;28;20051;-60
2024/02/05 07:18:40;;;;;;;2.80;1.30;;;;;;;;;;5070934;28;20103;-60
2024/02/05 07:21:07;;;;;;;2.80;1.00;;;;;;;;;;5069001;28;20021;-60
2024/02/05 07:23:33;;;;;;;2.40;0.90;;;;;;;;;;5060952;28;20036;-60
2024/02/05 07:25:59;;;;;;;2.30;1.23;;;;;;;;;;5067723;28;20494;-60
2024/02/05 07:28:25;;;;;;;1.85;0.98;;;;;;;;;;5068161;28;20400;-60
2024/02/05 07:30:51;;;;;;;3.47;1.42;;;;;;;;;;5067083;28;20063;-60
2024/02/05 07:33:17;;;;;;;1.77;1.13;;;;;;;;;;5067675;28;20031;-60
2024/02/05 07:35:43;;;;;;;3.50;1.15;;;;;;;;;;5067759;28;20020;-60
2024/02/05 07:38:09;;;;;;;4.05;1.15;;;;;;;;;;5066649;28;20082;-60
2024/02/05 07:40:35;;;;;;;2.08;1.30;;;;;;;;;;5070111;28;20029;-60
2024/02/05 07:43:01;;;;;;;4.45;1.85;;;;;;;;;;5065087;28;20079;-60
2024/02/05 07:45:29;;;;;;;2.15;1.10;;;;;;;;;;5069648;28;20021;-60
2024/02/05 07:47:55;;;;;;;9.38;1.38;;;;;;;;;;5070924;28;20035;-60
2024/02/05 07:50:21;;;;;;;3.08;1.67;;;;;;;;;;5043097;28;20032;-60
2024/02/05 07:52:47;;;;;;;4.95;1.70;;;;;;;;;;5070562;28;20029;-60
2024/02/05 07:55:13;;;;;;;3.97;1.88;;;;;;;;;;5068809;28;20020;-59
2024/02/05 07:57:39;;;;;;;8.88;1.80;;;;;;;;;;5055505;28;20087;-60
2024/02/05 08:00:05;;;;;;;4.20;2.03;;;;;;;;;;5064772;28;20386;-60
2024/02/05 08:02:32;;;;;;;6.55;2.22;;;;;;;;;;5065930;28;20371;-60
2024/02/05 08:04:58;;;;;;;6.40;2.22;;;;;;;;;;5068404;28;20025;-60
2024/02/05 08:07:24;;;;;;;6.28;2.45;;;;;;;;;;5071211;28;20078;-60
2024/02/05 08:09:51;;;;;;;3.75;2.10;;;;;;;;;;5062434;28;20553;-59
2024/02/05 08:12:18;;;;;;;10.50;2.42;;;;;;;;;;5064856;28;20039;-60
2024/02/05 08:14:44;;;;;;;8.85;2.22;;;;;;;;;;5070177;28;20048;-60
2024/02/05 08:17:10;;;;;;;4.82;2.20;;;;;;;;;;5065853;28;20104;-60
2024/02/05 08:19:36;;;;;;;9.77;2.75;;;;;;;;;;5066725;28;20043;-60
2024/02/05 08:22:02;;;;;;;5.60;2.67;;;;;;;;;;5069953;28;20032;-60
2024/02/05 08:24:28;;;;;;;7.40;2.45;;;;;;;;;;5063079;28;20029;-60
2024/02/05 08:26:54;;;;;;;9.65;2.83;;;;;;;;;;5066684;28;20025;-61
2024/02/05 08:29:22;;;;;;;7.57;2.92;;;;;;;;;;5070692;28;20058;-60
2024/02/05 08:31:48;;;;;;;5.90;2.53;;;;;;;;;;5066447;28;20024;-60
2024/02/05 08:34:14;;;;;;;7.07;3.03;;;;;;;;;;5064807;28;20123;-60
2024/02/05 08:36:40;;;;;;;7.40;3.05;;;;;;;;;;5070906;28;20382;-60
2024/02/05 08:39:10;;;;;;;10.93;3.38;;;;;;;;;;5068280;28;20040;-60
2024/02/05 08:41:37;;;;;;;10.60;4.13;;;;;;;;;;5064145;28;20443;-59
2024/02/05 08:44:03;;;;;;;7.90;3.10;;;;;;;;;;5068814;28;20449;-60
2024/02/05 08:46:29;;;;;;;13.55;3.53;;;;;;;;;;5055306;28;20112;-60
2024/02/05 08:48:55;;;;;;;8.18;3.80;;;;;;;;;;5065913;28;20063;-60
2024/02/05 08:51:22;;;;;;;11.25;5.00;;;;;;;;;;5047719;28;20021;-60
2024/02/05 08:53:48;;;;;;;9.95;3.03;;;;;;;;;;5073181;28;20032;-60
2024/02/05 08:56:14;;;;;;;17.35;3.95;;;;;;;;;;5066133;28;20047;-62
2024/02/05 08:58:40;;;;;;;12.88;4.20;;;;;;;;;;5071819;28;20029;-60
2024/02/05 09:01:06;;;;;;;7.43;3.15;;;;;;;;;;5064302;28;20536;-61
2024/02/05 09:03:32;;;;;;;15.18;3.40;;;;;;;;;;5069101;28;20020;-61
2024/02/05 09:05:58;;;;;;;14.70;4.03;;;;;;;;;;5065568;28;20035;-63
2024/02/05 09:08:24;;;;;;;9.93;3.40;;;;;;;;;;5068180;28;20038;-61
2024/02/05 09:10:50;;;;;;;9.30;3.00;;;;;;;;;;5069968;28;20420;-61
2024/02/05 09:13:16;;;;;;;11.73;3.92;;;;;;;;;;5070982;28;20363;-61
2024/02/05 09:15:42;;;;;;;11.13;4.57;;;;;;;;;;5072514;28;20044;-58
2024/02/05 09:18:09;;;;;;;8.32;3.75;;;;;;;;;;5070130;28;20039;-60
2024/02/05 09:20:36;;;;;;;13.50;3.63;;;;;;;;;;5067160;28;20119;-60
2024/02/05 09:23:02;;;;;;;14.73;4.47;;;;;;;;;;5060003;28;20095;-61
2024/02/05 09:25:28;;;;;;;15.27;4.35;;;;;;;;;;5072518;28;20398;-60
2024/02/05 09:27:54;;;;;;;11.43;3.85;;;;;;;;;;5068585;28;20020;-61
2024/02/05 09:30:21;;;;;;;13.63;4.15;;;;;;;;;;5062967;28;20506;-61
2024/02/05 09:32:47;;;;;;;12.65;4.43;;;;;;;;;;5072541;28;20032;-60
2024/02/05 09:35:13;;;;;;;14.55;4.00;;;;;;;;;;5066809;28;20521;-60
2024/02/05 09:37:39;;;;;;;14.13;3.88;;;;;;;;;;5068767;28;20043;-60
2024/02/05 09:40:05;;;;;;;10.70;3.78;;;;;;;;;;5072525;28;21761;-60
2024/02/05 09:42:31;;;;;;;18.50;4.28;;;;;;;;;;5062865;28;20036;-62
2024/02/05 09:44:57;;;;;;;13.27;3.80;;;;;;;;;;5066666;28;20448;-61
2024/02/05 09:47:25;;;;;;;14.55;3.60;;;;;;;;;;5062628;28;20032;-61
2024/02/05 09:49:54;;;;;;;12.68;3.63;;;;;;;;;;5072553;28;20493;-60
2024/02/05 09:52:23;;;;;;;9.88;3.08;;;;;;;;;;5067598;28;20067;-60
2024/02/05 09:54:50;;;;;;;19.73;4.63;;;;;;;;;;5066854;28;20025;-60
2024/02/05 09:57:17;;;;;;;14.32;4.70;;;;;;;;;;5071988;28;20024;-60
2024/02/05 09:59:43;;;;;;;15.48;3.28;;;;;;;;;;5070967;28;20028;-60
2024/02/05 10:02:10;;;;;;;10.77;3.30;;;;;;;;;;5053349;28;20390;-60
2024/02/05 10:04:43;;;;;;;15.57;3.92;;;;;;;;;;5071136;28;20442;-60
2024/02/05 10:07:13;;;;;;;8.57;2.97;;;;;;;;;;5063699;28;20055;-61
2024/02/05 10:09:40;;;;;;;8.70;2.80;;;;;;;;;;5068055;28;20021;-60
2024/02/05 10:12:09;;;;;;;7.97;2.85;;;;;;;;;;5062722;28;20103;-60
2024/02/05 10:14:35;;;;;;;16.42;3.90;;;;;;;;;;5068092;28;20049;-61
2024/02/05 10:17:01;;;;;;;8.65;3.15;;;;;;;;;;5069999;28;20083;-59
2024/02/05 10:19:27;;;;;;;9.25;2.70;;;;;;;;;;5070371;28;20112;-59
2024/02/05 10:21:56;;;;;;;11.40;2.30;;;;;;;;;;5068190;28;20025;-59
2024/02/05 10:24:22;;;;;;;9.38;2.88;;;;;;;;;;5071972;28;20017;-58
2024/02/05 10:26:48;;;;;;;14.13;3.00;;;;;;;;;;5067560;28;20032;-59
2024/02/05 10:29:14;;;;;;;10.00;2.83;;;;;;;;;;5070275;28;20024;-58
2024/02/05 10:31:45;;;;;;;11.80;3.83;;;;;;;;;;5071909;28;20441;-58
2024/02/05 10:34:17;;;;;;;10.10;2.47;;;;;;;;;;5067921;28;20028;-58
2024/02/05 10:36:43;;;;;;;15.95;2.65;;;;;;;;;;5066172;28;20486;-59
2024/02/05 10:39:09;;;;;;;11.52;3.38;;;;;;;;;;5068121;28;20153;-58
2024/02/05 10:41:38;;;;;;;6.47;2.88;;;;;;;;;;5071239;28;20033;-58
2024/02/05 10:44:04;;;;;;;10.27;2.80;;;;;;;;;;5066393;28;20071;-58
2024/02/05 10:46:31;;;;;;;15.93;3.92;;;;;;;;;;5067109;28;20096;-59
2024/02/05 10:48:57;;;;;;;14.90;3.47;;;;;;;;;;5069187;28;20032;-59
2024/02/05 10:51:23;;;;;;;16.27;3.78;;;;;;;;;;5068577;28;20036;-60
2024/02/05 10:53:50;;;;;;;13.95;3.35;;;;;;;;;;5060800;28;20055;-58
2024/02/05 10:56:16;;;;;;;15.88;3.30;;;;;;;;;;5071627;28;20102;-59
2024/02/05 10:58:43;;;;;;;15.05;3.45;;;;;;;;;;5070481;28;20107;-58
2024/02/05 11:01:11;;;;;;;14.82;3.97;;;;;;;;;;5062649;28;20032;-59
2024/02/05 11:03:37;;;;;;;16.58;3.45;;;;;;;;;;5063418;28;20036;-60
2024/02/05 11:06:05;;;;;;;15.60;3.53;;;;;;;;;;5070640;28;20496;-60
2024/02/05 11:08:37;;;;;;;21.25;3.42;;;;;;;;;;5068987;28;20029;-58
2024/02/05 11:11:09;;;;;;;15.90;3.92;;;;;;;;;;5070477;28;20062;-58
2024/02/05 11:13:37;;;;;;;10.13;3.60;;;;;;;;;;5067544;28;20025;-59
2024/02/05 11:16:04;;;;;;;16.10;4.05;;;;;;;;;;5064756;28;20110;-58
2024/02/05 11:18:34;;;;;;;11.65;3.58;;;;;;;;;;5068726;28;20028;-59
2024/02/05 11:21:01;;;;;;;11.80;3.50;;;;;;;;;;5065852;28;20021;-58
2024/02/05 11:23:27;;;;;;;17.92;4.43;;;;;;;;;;5063504;28;20033;-59
2024/02/05 11:25:53;;;;;;;16.02;4.15;;;;;;;;;;5062113;28;20120;-61
2024/02/05 11:28:19;;;;;;;14.00;3.63;;;;;;;;;;5068773;28;20437;-61
2024/02/05 11:30:46;;;;;;;16.83;4.05;;;;;;;;;;5069791;28;20535;-60
2024/02/05 11:33:12;;;;;;;17.67;3.58;;;;;;;;;;5060473;28;20028;-61
2024/02/05 11:35:47;;;;;;;15.45;4.60;;;;;;;;;;5070657;28;20029;-60
2024/02/05 11:38:13;;;;;;;13.02;3.13;;;;;;;;;;5065875;28;20509;-61
2024/02/05 11:40:39;;;;;;;13.75;3.92;;;;;;;;;;5070342;28;20047;-60
2024/02/05 11:43:06;;;;;;;17.05;4.55;;;;;;;;;;5067532;28;20096;-61
2024/02/05 11:45:33;;;;;;;11.77;3.28;;;;;;;;;;5066580;28;20039;-60
2024/02/05 11:48:01;;;;;;;13.77;3.67;;;;;;;;;;5060988;28;20554;-60
2024/02/05 11:50:28;;;;;;;11.23;3.28;;;;;;;;;;5070835;28;20063;-61
2024/02/05 11:52:54;;;;;;;15.80;4.30;;;;;;;;;;5069421;28;20134;-60
2024/02/05 11:55:23;;;;;;;20.40;3.55;;;;;;;;;;5067411;28;20107;-60
2024/02/05 11:57:51;;;;;;;14.95;3.97;;;;;;;;;;5070263;28;20478;-61
2024/02/05 12:00:17;;;;;;;11.13;3.13;;;;;;;;;;5070433;28;20469;-62
2024/02/05 12:02:44;;;;;;;9.27;2.92;;;;;;;;;;5066896;28;20097;-61
2024/02/05 12:05:11;;;;;;;16.50;4.45;;;;;;;;;;5058123;28;20032;-61
2024/02/05 12:07:38;;;;;;;16.48;3.20;;;;;;;;;;5062958;28;20029;-61
2024/02/05 12:10:05;;;;;;;15.40;4.47;;;;;;;;;;5070431;28;20444;-61
2024/02/05 12:12:31;;;;;;;16.05;3.60;;;;;;;;;;5064135;28;20087;-60
2024/02/05 12:14:57;;;;;;;11.75;3.42;;;;;;;;;;5068035;28;20060;-61
2024/02/05 12:17:23;;;;;;;12.25;3.10;;;;;;;;;;5063969;28;20107;-60
2024/02/05 12:19:57;;;;;;;12.07;3.92;;;;;;;;;;5069608;28;20447;-60
2024/02/05 12:22:23;;;;;;;16.70;4.13;;;;;;;;;;5066424;28;20913;-62
2024/02/05 12:24:50;;;;;;;11.55;3.25;;;;;;;;;;5061150;28;20035;-61
2024/02/05 12:27:16;;;;;;;18.85;4.30;;;;;;;;;;5065073;28;20462;-60
2024/02/05 12:29:42;;;;;;;13.52;3.17;;;;;;;;;;5069790;28;20104;-60
2024/02/05 12:32:09;;;;;;;13.98;3.55;;;;;;;;;;5069940;28;20488;-60
2024/02/05 12:34:35;;;;;;;17.05;4.25;;;;;;;;;;5058681;28;20025;-60
2024/02/05 12:37:02;;;;;;;22.85;4.22;;;;;;;;;;5070206;28;20463;-58
2024/02/05 12:39:28;;;;;;;21.60;3.42;;;;;;;;;;5066238;28;20032;-59
2024/02/05 12:41:54;;;;;;;17.98;4.45;;;;;;;;;;5069795;28;20474;-59
2024/02/05 12:44:20;;;;;;;13.23;3.85;;;;;;;;;;5065939;28;20028;-60
2024/02/05 12:46:46;;;;;;;18.23;3.90;;;;;;;;;;5069327;28;20394;-59
2024/02/05 12:49:13;;;;;;;17.52;3.42;;;;;;;;;;5063469;28;20017;-58
2024/02/05 12:51:41;;;;;;;15.93;3.80;;;;;;;;;;5063015;28;20032;-60
2024/02/05 12:54:07;;;;;;;13.63;3.65;;;;;;;;;;5066742;28;20422;-59
2024/02/05 12:56:33;;;;;;;16.02;4.53;;;;;;;;;;5054506;28;20029;-59
2024/02/05 12:59:03;;;;;;;14.57;3.90;;;;;;;;;;5066692;28;20127;-63
2024/02/05 13:01:30;;;;;;;21.70;3.90;;;;;;;;;;5065940;28;20048;-59
2024/02/05 13:03:56;;;;;;;15.13;3.95;;;;;;;;;;5070201;28;20019;-58
2024/02/05 13:06:23;;;;;;;17.35;4.88;;;;;;;;;;5070842;28;20025;-60
2024/02/05 13:08:49;;;;;;;16.42;3.63;;;;;;;;;;5061863;28;20384;-59
2024/02/05 13:11:15;;;;;;;25.33;4.25;;;;;;;;;;5071438;28;20028;-59
2024/02/05 13:13:41;;;;;;;18.52;4.28;;;;;;;;;;5062577;28;20032;-60
2024/02/05 13:16:08;;;;;;;17.92;3.55;;;;;;;;;;5065072;28;20043;-58
2024/02/05 13:18:34;;;;;;;19.85;4.57;;;;;;;;;;5066755;28;20425;-58
2024/02/05 13:21:00;;;;;;;18.75;3.88;;;;;;;;;;5066346;28;20159;-57
2024/02/05 13:23:27;;;;;;;19.98;3.70;;;;;;;;;;5072862;28;20033;-58
2024/02/05 13:25:53;;;;;;;16.98;3.67;;;;;;;;;;5072498;28;20497;-59
2024/02/05 13:28:19;;;;;;;20.25;4.50;;;;;;;;;;5066127;28;20063;-58
2024/02/05 13:30:46;;;;;;;16.27;3.90;;;;;;;;;;5068828;28;20090;-58
2024/02/05 13:33:13;;;;;;;17.38;4.38;;;;;;;;;;5066355;28;20111;-58
2024/02/05 13:35:39;;;;;;;15.75;4.40;;;;;;;;;;5070832;28;20387;-59
2024/02/05 13:38:05;;;;;;;17.90;4.00;;;;;;;;;;5060375;28;20064;-58
2024/02/05 13:40:31;;;;;;;13.20;4.00;;;;;;;;;;5071945;28;20032;-60
2024/02/05 13:42:57;;;;;;;16.30;3.55;;;;;;;;;;5058532;28;20047;-58
2024/02/05 13:45:24;;;;;;;18.17;3.85;;;;;;;;;;5067841;28;20021;-57
2024/02/05 13:47:51;;;;;;;17.52;4.07;;;;;;;;;;5069048;28;20056;-61
2024/02/05 13:50:17;;;;;;;14.02;4.00;;;;;;;;;;5069524;28;20082;-61
2024/02/05 13:52:44;;;;;;;16.10;3.88;;;;;;;;;;5072473;28;20021;-61
2024/02/05 13:55:12;;;;;;;19.75;3.75;;;;;;;;;;5067423;28;20086;-62
2024/02/05 13:57:38;;;;;;;15.45;4.05;;;;;;;;;;5068115;28;20029;-58
2024/02/05 14:00:05;;;;;;;20.45;3.25;;;;;;;;;;5061249;28;20033;-59
2024/02/05 14:02:34;;;;;;;12.10;4.30;;;;;;;;;;5065233;28;20012;-59
2024/02/05 14:05:00;;;;;;;18.33;3.55;;;;;;;;;;5063145;28;20031;-60
2024/02/05 14:07:26;;;;;;;15.23;3.25;;;;;;;;;;5068431;28;20029;-60
2024/02/05 14:09:52;;;;;;;13.38;3.55;;;;;;;;;;5059003;28;20025;-59
2024/02/05 14:12:18;;;;;;;18.95;3.92;;;;;;;;;;5059162;28;20070;-58
2024/02/05 14:14:44;;;;;;;21.75;3.90;;;;;;;;;;5070835;28;20070;-58
2024/02/05 14:17:10;;;;;;;16.33;3.85;;;;;;;;;;5071116;28;20024;-58
2024/02/05 14:19:36;;;;;;;25.45;4.25;;;;;;;;;;5067138;28;20089;-58
2024/02/05 14:22:05;;;;;;;19.05;4.20;;;;;;;;;;5069022;28;20479;-59
2024/02/05 14:24:32;;;;;;;17.35;3.15;;;;;;;;;;5072085;28;20356;-59
2024/02/05 14:26:58;;;;;;;21.73;3.75;;;;;;;;;;5069877;28;20472;-59
2024/02/05 14:29:24;;;;;;;15.45;4.32;;;;;;;;;;5068025;28;20483;-58
2024/02/05 14:31:50;;;;;;;22.55;3.88;;;;;;;;;;5071781;28;20032;-58
2024/02/05 14:34:17;;;;;;;21.13;3.63;;;;;;;;;;5057177;28;20032;-60